Terminal Aerodrome Forecast
Issued by NWS Topeka, KS

Home | Current Version | Previous Version | Text Only | Print | Product List | Glossary On
Versions: 1 2 3 4 5 6 7 8 9 10 11 12 13 14 15 16 17 18 19 20 21 22 23
000
FTUS43 KTOP 300200 AAA
TAFTOP
TAF AMD
KTOP 300251Z 3003/3024 18005KT P6SM SCT050
     FM300400 28008KT P6SM VCTS SCT020 BKN050CB
      TEMPO 3005/3007 5SM -TSRA BKN015CB OVC050
     FM300700 33013G20KT P6SM SCT008 OVC015
     FM302000 36011KT P6SM BKN020=

USA.gov is the U.S. government's official web portal to all federal, state and local government web resources and services.